Time;durP1;ratioP1;P1;durP2;ratioP2;P2;SDS_P1;SDS_P2;PMS_P1;PMS_P2;Temp;Humidity;BMP_temperature;BMP_pressure;BME280_temperature;BME280_humidity;BME280_pressure;Samples;Min_cycle;Max_cycle;Signal;HPM_P1;HPM_P2
2023/08/13 00:01:24;;;;;;;9.57;0.45;;;;;;;19.51;100.00;100655.56;5011114;28;20038;-48
2023/08/13 00:03:49;;;;;;;2.38;0.45;;;;;;;19.54;100.00;100641.63;5018493;28;20127;-58
2023/08/13 00:06:15;;;;;;;5.30;1.38;;;;;;;19.58;100.00;100653.50;5019561;28;20061;-52
2023/08/13 00:08:40;;;;;;;5.38;1.45;;;;;;;19.50;100.00;100652.06;5017726;28;20463;-52
2023/08/13 00:11:11;;;;;;;2.97;0.80;;;;;;;19.48;100.00;100656.88;5016028;28;20035;-48
2023/08/13 00:13:39;;;;;;;1.63;0.55;;;;;;;19.51;100.00;100664.44;5019494;28;20078;-51
2023/08/13 00:16:05;;;;;;;4.72;1.05;;;;;;;19.43;100.00;100662.16;5012531;28;20045;-51
2023/08/13 00:18:32;;;;;;;2.72;0.60;;;;;;;19.48;100.00;100656.06;5012147;28;20037;-51
2023/08/13 00:20:58;;;;;;;10.23;0.73;;;;;;;19.45;100.00;100653.84;5032573;28;20037;-56
2023/08/13 00:23:23;;;;;;;9.55;1.13;;;;;;;19.34;100.00;100659.06;5022420;28;20311;-56
2023/08/13 00:25:48;;;;;;;6.20;0.57;;;;;;;19.31;100.00;100664.94;5011727;28;20480;-55
2023/08/13 00:28:14;;;;;;;5.35;1.25;;;;;;;19.35;100.00;100662.56;5013797;28;20385;-54
2023/08/13 00:30:39;;;;;;;10.48;1.20;;;;;;;19.37;100.00;100663.16;5016455;28;20037;-56
2023/08/13 00:33:04;;;;;;;5.40;0.80;;;;;;;19.35;100.00;100657.19;5014980;28;20025;-49
2023/08/13 00:35:30;;;;;;;6.05;1.40;;;;;;;19.34;100.00;100659.06;5010881;28;20455;-53
2023/08/13 00:37:55;;;;;;;5.35;0.70;;;;;;;19.40;100.00;100652.72;5019513;28;20083;-51
2023/08/13 00:40:20;;;;;;;7.43;0.70;;;;;;;19.41;100.00;100650.81;5017899;28;20123;-52
2023/08/13 00:42:46;;;;;;;4.78;0.52;;;;;;;19.32;100.00;100647.75;5017795;28;20037;-52
2023/08/13 00:45:11;;;;;;;5.75;0.47;;;;;;;19.26;100.00;100650.59;5011356;28;20075;-53
2023/08/13 00:47:37;;;;;;;4.22;1.60;;;;;;;19.20;100.00;100640.81;5027840;28;20454;-52
2023/08/13 00:50:04;;;;;;;5.80;0.70;;;;;;;19.09;100.00;100648.72;5014998;28;20037;-53
2023/08/13 00:52:30;;;;;;;6.50;0.90;;;;;;;19.15;100.00;100646.94;5018156;28;20095;-55
2023/08/13 00:54:56;;;;;;;4.78;0.43;;;;;;;19.23;100.00;100651.88;5025003;28;20033;-55
2023/08/13 00:57:22;;;;;;;4.57;0.93;;;;;;;19.20;100.00;100651.56;5022545;28;20095;-55
2023/08/13 00:59:47;;;;;;;6.03;1.08;;;;;;;19.23;100.00;100651.88;5020174;28;20029;-52
2023/08/13 01:02:13;;;;;;;6.75;0.40;;;;;;;19.22;100.00;100639.53;5020207;28;20045;-54
2023/08/13 01:04:38;;;;;;;4.00;0.55;;;;;;;19.12;100.00;100640.16;5008627;28;20065;-52
2023/08/13 01:07:16;;;;;;;3.58;1.20;;;;;;;18.92;100.00;100647.88;5018596;28;20029;-52
2023/08/13 01:10:09;;;;;;;7.00;1.00;;;;;;;18.90;100.00;100640.06;5019152;28;20029;-50
2023/08/13 01:13:07;;;;;;;2.85;0.47;;;;;;;18.84;100.00;100645.59;5026151;28;20079;-50
2023/08/13 01:15:35;;;;;;;5.18;0.75;;;;;;;18.79;100.00;100645.50;5010086;28;20103;-54
2023/08/13 01:18:02;;;;;;;1.13;0.40;;;;;;;18.74;100.00;100638.97;5016180;28;20029;-51
2023/08/13 01:20:42;;;;;;;2.35;0.75;;;;;;;18.70;100.00;100642.38;5018270;28;20110;-52
2023/08/13 01:23:07;;;;;;;2.88;0.88;;;;;;;18.72;100.00;100643.75;5014707;28;20036;-53
2023/08/13 01:25:32;;;;;;;9.18;0.60;;;;;;;18.73;100.00;100642.69;5022590;28;20066;-52
2023/08/13 01:28:15;;;;;;;4.93;1.35;;;;;;;18.70;100.00;100643.19;5019390;28;20049;-55
2023/08/13 01:30:43;;;;;;;9.95;1.42;;;;;;;18.62;100.00;100640.06;5020839;28;20384;-55
2023/08/13 01:33:14;;;;;;;6.05;1.55;;;;;;;18.54;100.00;100638.59;5020017;28;20029;-52
2023/08/13 01:35:43;;;;;;;8.77;1.10;;;;;;;18.56;100.00;100638.31;5021944;28;20046;-51
2023/08/13 01:38:10;;;;;;;2.30;1.13;;;;;;;18.62;100.00;100638.19;5021596;28;20036;-55
2023/08/13 01:40:35;;;;;;;3.33;0.45;;;;;;;18.65;100.00;100635.03;5021574;28;20160;-52
2023/08/13 01:43:00;;;;;;;6.05;0.20;;;;;;;18.49;100.00;100628.56;5017896;28;20474;-54
2023/08/13 01:45:26;;;;;;;7.45;1.00;;;;;;;18.62;100.00;100630.13;5023302;28;20147;-52
2023/08/13 01:47:51;;;;;;;3.40;1.13;;;;;;;18.67;100.00;100627.56;5021020;28;20032;-54
2023/08/13 01:50:16;;;;;;;6.50;0.43;;;;;;;18.64;100.00;100627.19;5020564;28;20148;-50
2023/08/13 01:52:42;;;;;;;6.90;0.47;;;;;;;18.71;100.00;100630.56;5026276;28;20035;-53
2023/08/13 01:55:07;;;;;;;4.10;0.90;;;;;;;18.69;100.00;100613.88;5029642;28;20402;-52
2023/08/13 01:57:33;;;;;;;2.97;0.17;;;;;;;18.67;100.00;100627.56;5026228;28;20052;-53
2023/08/13 01:59:58;;;;;;;4.63;0.40;;;;;;;18.72;100.00;100624.16;5022878;28;20048;-53
2023/08/13 02:02:24;;;;;;;9.80;1.25;;;;;;;18.73;100.00;100625.75;5030402;28;20044;-49
2023/08/13 02:04:49;;;;;;;5.40;1.23;;;;;;;18.76;100.00;100622.63;5024629;28;20497;-55
2023/08/13 02:07:14;;;;;;;2.70;0.57;;;;;;;18.81;100.00;100622.72;5021151;28;20028;-52
2023/08/13 02:09:40;;;;;;;3.95;0.30;;;;;;;18.76;100.00;100622.63;5025608;28;20028;-54
2023/08/13 02:12:05;;;;;;;5.45;1.02;;;;;;;18.78;100.00;100615.16;5028098;28;20033;-50
2023/08/13 02:14:31;;;;;;;3.13;0.30;;;;;;;18.76;100.00;100619.13;5026192;28;20569;-53
2023/08/13 02:16:58;;;;;;;2.78;0.20;;;;;;;18.73;100.00;100621.19;5028528;28;20119;-53
2023/08/13 02:19:24;;;;;;;5.88;1.30;;;;;;;18.77;100.00;100628.81;5020465;28;20052;-53
2023/08/13 02:21:49;;;;;;;3.97;0.22;;;;;;;18.76;100.00;100629.88;5018174;28;20483;-53
2023/08/13 02:24:14;;;;;;;2.58;0.80;;;;;;;18.79;100.00;100621.31;5027871;28;20045;-53
2023/08/13 02:26:40;;;;;;;5.10;0.32;;;;;;;18.84;100.00;100614.16;5020603;28;20557;-53
2023/08/13 02:29:05;;;;;;;5.07;0.30;;;;;;;18.90;100.00;100615.91;5021110;28;20435;-49
2023/08/13 02:31:30;;;;;;;4.07;1.50;;;;;;;18.94;100.00;100613.53;5015435;28;20094;-57
2023/08/13 02:33:56;;;;;;;3.00;0.40;;;;;;;18.91;100.00;100617.50;5020841;28;20433;-55
2023/08/13 02:36:21;;;;;;;6.50;0.98;;;;;;;18.96;100.00;100619.47;5023696;28;20048;-53
2023/08/13 02:38:46;;;;;;;6.32;0.55;;;;;;;18.94;100.00;100614.34;5022740;28;20037;-52
2023/08/13 02:41:12;;;;;;;5.43;0.85;;;;;;;18.99;100.00;100605.56;5021000;28;20117;-53
2023/08/13 02:43:54;;;;;;;7.78;0.40;;;;;;;19.03;100.00;100604.03;5023683;28;20041;-53
2023/08/13 02:46:21;;;;;;;8.00;1.17;;;;;;;18.95;100.00;100601.75;5015300;28;20176;-55
2023/08/13 02:48:47;;;;;;;5.55;0.52;;;;;;;18.93;100.00;100607.34;5016439;28;20033;-50
2023/08/13 02:51:13;;;;;;;3.55;0.43;;;;;;;18.83;100.00;100593.75;5020968;28;20032;-56
2023/08/13 02:53:38;;;;;;;7.65;0.77;;;;;;;18.80;100.00;100601.47;5031631;28;20549;-55
2023/08/13 02:56:04;;;;;;;7.30;0.40;;;;;;;18.72;100.00;100602.66;5019818;28;20048;-52
2023/08/13 02:58:29;;;;;;;3.88;0.38;;;;;;;18.84;100.00;100606.09;5022942;28;20117;-54
2023/08/13 03:00:54;;;;;;;4.20;0.40;;;;;;;18.98;100.00;100600.44;5021778;28;20378;-55
2023/08/13 03:03:20;;;;;;;7.75;0.70;;;;;;;19.00;100.00;100593.75;5022218;28;20371;-55
2023/08/13 03:05:45;;;;;;;7.18;1.65;;;;;;;18.97;100.00;100588.84;5021447;28;20056;-54
2023/08/13 03:08:10;;;;;;;6.68;0.50;;;;;;;19.04;100.00;100599.44;5024185;28;20049;-54
2023/08/13 03:10:35;;;;;;;3.30;0.30;;;;;;;19.09;100.00;100591.47;5019936;28;20032;-54
2023/08/13 03:13:01;;;;;;;4.35;1.17;;;;;;;18.90;100.00;100593.59;5010739;28;20395;-51
2023/08/13 03:15:26;;;;;;;2.83;1.55;;;;;;;18.92;100.00;100591.47;5020706;28;20030;-56
2023/08/13 03:17:51;;;;;;;4.72;0.40;;;;;;;18.88;100.00;100596.50;5028754;28;20391;-53
2023/08/13 03:20:17;;;;;;;6.22;1.75;;;;;;;18.84;100.00;100590.00;5022108;28;20041;-53
2023/08/13 03:22:42;;;;;;;4.32;0.77;;;;;;;18.82;100.00;100592.13;5016304;28;20038;-47
2023/08/13 03:25:08;;;;;;;7.63;1.15;;;;;;;18.87;100.00;100594.91;5024111;28;20061;-49
2023/08/13 03:27:33;;;;;;;3.30;0.60;;;;;;;18.95;100.00;100599.88;5022449;28;20033;-54
2023/08/13 03:29:59;;;;;;;6.10;1.23;;;;;;;19.03;100.00;100603.22;5017365;28;20491;-54
2023/08/13 03:32:24;;;;;;;5.70;0.60;;;;;;;19.05;100.00;100601.91;5018003;28;20032;-52
2023/08/13 03:34:50;;;;;;;5.05;0.95;;;;;;;19.09;100.00;100596.84;5018510;28;20033;-53
2023/08/13 03:37:15;;;;;;;9.00;0.70;;;;;;;19.11;100.00;100600.13;5023301;28;20099;-56
2023/08/13 03:39:40;;;;;;;3.13;0.40;;;;;;;19.08;100.00;100603.28;5021131;28;20083;-56
2023/08/13 03:42:05;;;;;;;4.90;0.50;;;;;;;19.12;100.00;100597.16;5025669;28;20037;-55
2023/08/13 03:44:31;;;;;;;11.20;1.17;;;;;;;19.15;100.00;100595.88;5019593;28;20553;-51
2023/08/13 03:46:56;;;;;;;9.63;1.13;;;;;;;19.20;100.00;100604.00;5021249;28;20493;-52
2023/08/13 03:49:21;;;;;;;4.38;0.80;;;;;;;19.18;100.00;100604.25;5018713;28;20563;-55
2023/08/13 03:51:47;;;;;;;2.97;0.43;;;;;;;19.14;100.00;100600.44;5032802;28;20029;-47
2023/08/13 03:54:12;;;;;;;3.47;0.60;;;;;;;19.09;100.00;100600.34;5017911;28;20116;-53
2023/08/13 03:56:37;;;;;;;11.80;0.73;;;;;;;19.07;100.00;100604.34;5021991;28;20068;-53
2023/08/13 03:59:03;;;;;;;6.80;1.08;;;;;;;19.05;100.00;100599.22;5019598;28;20025;-52
2023/08/13 04:01:28;;;;;;;1.08;0.20;;;;;;;19.17;100.00;100597.25;5025259;28;20056;-52
2023/08/13 04:03:54;;;;;;;5.55;0.60;;;;;;;19.20;100.00;100587.06;5015779;28;20376;-54
2023/08/13 04:06:19;;;;;;;2.63;0.35;;;;;;;19.29;100.00;100590.97;5013548;28;20022;-52
2023/08/13 04:08:44;;;;;;;10.68;0.20;;;;;;;19.31;100.00;100597.75;5019160;28;20080;-54
2023/08/13 04:11:09;;;;;;;4.90;0.93;;;;;;;19.33;100.00;100589.41;5018040;28;20084;-53
2023/08/13 04:13:35;;;;;;;8.75;0.95;;;;;;;19.30;100.00;100598.78;5019586;28;20033;-53
2023/08/13 04:16:00;;;;;;;3.75;0.77;;;;;;;19.31;100.00;100589.69;5027429;28;20108;-52
2023/08/13 04:18:25;;;;;;;3.13;0.65;;;;;;;19.21;100.00;100589.53;5017474;28;20108;-47
2023/08/13 04:20:51;;;;;;;2.38;0.30;;;;;;;19.17;100.00;100594.56;5017801;28;20041;-49
2023/08/13 04:23:16;;;;;;;7.20;0.80;;;;;;;19.24;100.00;100591.72;5008689;28;20037;-51
2023/08/13 04:25:41;;;;;;;5.90;1.05;;;;;;;19.17;100.00;100583.00;5023134;28;20040;-53
2023/08/13 04:28:07;;;;;;;3.70;0.68;;;;;;;19.20;100.00;100587.88;5023319;28;20029;-47
2023/08/13 04:30:32;;;;;;;6.38;0.30;;;;;;;19.18;100.00;100590.03;5018622;28;20131;-50
2023/08/13 04:32:58;;;;;;;6.20;0.80;;;;;;;19.23;100.00;100590.06;5015756;28;20456;-52
2023/08/13 04:35:23;;;;;;;4.78;0.15;;;;;;;19.25;100.00;100585.25;5015029;28;20049;-55
2023/08/13 04:37:50;;;;;;;6.65;0.57;;;;;;;19.20;100.00;100590.56;5026686;28;20021;-52
2023/08/13 04:40:16;;;;;;;4.53;0.55;;;;;;;19.09;100.00;100588.78;5014790;28;20124;-56
2023/08/13 04:42:42;;;;;;;2.25;0.73;;;;;;;19.08;100.00;100595.22;5016591;28;20621;-51
2023/08/13 04:45:07;;;;;;;4.70;1.52;;;;;;;18.64;100.00;100597.66;5016557;28;20156;-48
2023/08/13 04:47:33;;;;;;;7.03;0.65;;;;;;;18.70;100.00;100592.16;5019093;28;20033;-56
2023/08/13 04:49:58;;;;;;;4.45;0.45;;;;;;;18.66;100.00;100593.69;5012405;28;20035;-51
2023/08/13 04:52:23;;;;;;;1.83;0.60;;;;;;;18.67;100.00;100589.94;5013305;28;20117;-51
2023/08/13 04:54:49;;;;;;;4.20;0.40;;;;;;;18.82;100.00;100583.22;5016174;28;20022;-51
2023/08/13 04:57:15;;;;;;;6.38;0.85;;;;;;;18.91;100.00;100577.22;5019328;28;20033;-57
2023/08/13 04:59:40;;;;;;;4.13;0.55;;;;;;;18.92;100.00;100581.56;5014637;28;20498;-53
2023/08/13 05:02:05;;;;;;;1.98;0.32;;;;;;;18.88;100.00;100575.03;5019562;28;20037;-49
2023/08/13 05:04:31;;;;;;;4.95;0.52;;;;;;;18.92;100.00;100581.56;5011977;28;20083;-52
2023/08/13 05:06:56;;;;;;;2.47;0.30;;;;;;;18.86;100.00;100579.81;5013493;28;20112;-55
2023/08/13 05:09:21;;;;;;;2.05;0.22;;;;;;;18.88;100.00;100584.97;5015420;28;20060;-53
2023/08/13 05:11:47;;;;;;;5.07;1.08;;;;;;;18.96;100.00;100585.34;5021708;28;20724;-49
2023/08/13 05:14:12;;;;;;;1.67;0.20;;;;;;;18.94;100.00;100590.16;5024513;28;20704;-52
2023/08/13 05:16:37;;;;;;;2.30;0.47;;;;;;;18.91;100.00;100590.66;5037733;28;20044;-53
2023/08/13 05:19:03;;;;;;;6.68;0.52;;;;;;;18.92;100.00;100580.72;5022216;28;20370;-49
2023/08/13 05:21:28;;;;;;;2.40;0.32;;;;;;;18.96;100.00;100585.34;5023306;28;20040;-54
2023/08/13 05:23:54;;;;;;;1.25;0.10;;;;;;;19.02;100.00;100580.06;5023346;28;20029;-55
2023/08/13 05:26:19;;;;;;;1.13;0.20;;;;;;;18.94;100.00;100579.41;5021586;28;20446;-54
2023/08/13 05:28:44;;;;;;;5.78;0.85;;;;;;;18.91;100.00;100579.91;5024540;28;20041;-53
2023/08/13 05:31:10;;;;;;;2.58;0.30;;;;;;;18.92;100.00;100578.88;5022208;28;20091;-52
2023/08/13 05:33:35;;;;;;;3.28;0.40;;;;;;;18.90;100.00;100577.47;5027420;28;20039;-52
2023/08/13 05:36:02;;;;;;;3.25;0.43;;;;;;;18.88;100.00;100575.03;5022358;28;20339;-52
2023/08/13 05:38:27;;;;;;;0.32;0.28;;;;;;;18.92;100.00;100578.88;5021808;28;20036;-55
2023/08/13 05:40:53;;;;;;;6.15;1.15;;;;;;;18.95;100.00;100578.38;5018988;28;20037;-53
2023/08/13 05:43:18;;;;;;;2.88;0.60;;;;;;;18.98;100.00;100579.75;5019270;28;20182;-53
2023/08/13 05:45:43;;;;;;;2.97;0.50;;;;;;;19.03;100.00;100582.53;5032474;28;20548;-50
2023/08/13 05:48:09;;;;;;;3.78;0.95;;;;;;;19.08;100.00;100576.44;5022372;28;20029;-49
2023/08/13 05:50:34;;;;;;;0.73;0.17;;;;;;;19.06;100.00;100583.91;5020168;28;20053;-52
2023/08/13 05:52:59;;;;;;;0.80;0.05;;;;;;;19.15;100.00;100585.09;5022716;28;20525;-54
2023/08/13 05:55:25;;;;;;;4.10;0.32;;;;;;;19.15;100.00;100582.41;5019885;28;20325;-51
2023/08/13 05:57:50;;;;;;;3.88;0.55;;;;;;;19.15;100.00;100580.56;5024802;28;20078;-51
2023/08/13 06:00:17;;;;;;;4.22;0.30;;;;;;;19.13;100.00;100584.56;5017487;28;20068;-50
2023/08/13 06:02:42;;;;;;;6.10;0.60;;;;;;;19.18;100.00;100590.81;5020589;28;20132;-50
2023/08/13 06:05:08;;;;;;;7.70;0.50;;;;;;;19.26;100.00;100596.81;5028911;28;20033;-53
2023/08/13 06:07:34;;;;;;;4.70;0.47;;;;;;;19.29;100.00;100590.97;5024326;28;20460;-49
2023/08/13 06:10:00;;;;;;;6.30;1.15;;;;;;;19.27;100.00;100593.91;5017367;28;20029;-54
2023/08/13 06:12:25;;;;;;;4.10;1.58;;;;;;;19.24;100.00;100590.91;5024625;28;20030;-55
2023/08/13 06:14:50;;;;;;;2.42;0.10;;;;;;;19.35;100.00;100590.78;5022622;28;20112;-55
2023/08/13 06:17:15;;;;;;;4.88;0.73;;;;;;;19.35;100.00;100571.97;5022035;28;20045;-50
2023/08/13 06:19:42;;;;;;;3.33;1.00;;;;;;;19.38;100.00;100579.53;5017915;28;20049;-53
2023/08/13 06:22:07;;;;;;;1.60;0.20;;;;;;;19.48;100.00;100588.84;5017114;28;20038;-51
2023/08/13 06:24:33;;;;;;;4.18;1.45;;;;;;;19.61;100.00;100580.41;5017909;28;20039;-48
2023/08/13 06:26:59;;;;;;;5.03;0.15;;;;;;;19.68;100.00;100582.97;5021135;28;20383;-48
2023/08/13 06:29:24;;;;;;;3.75;1.30;;;;;;;19.68;100.00;100586.44;5026022;28;20372;-50
2023/08/13 06:31:49;;;;;;;1.27;0.20;;;;;;;19.77;100.00;100590.34;5025034;28;20493;-52
2023/08/13 06:34:15;;;;;;;3.00;0.35;;;;;;;19.73;100.00;100588.41;5018817;28;20087;-51
2023/08/13 06:36:40;;;;;;;1.42;0.30;;;;;;;19.82;100.00;100585.00;5025889;28;20065;-49
2023/08/13 06:39:05;;;;;;;2.83;0.25;;;;;;;20.04;100.00;100584.22;5021015;28;20220;-47
2023/08/13 06:41:31;;;;;;;2.60;0.20;;;;;;;20.15;100.00;100577.06;5017356;28;20073;-52
2023/08/13 06:43:56;;;;;;;3.75;0.60;;;;;;;20.05;100.00;100575.88;5014710;28;20029;-53
2023/08/13 06:46:22;;;;;;;1.67;0.55;;;;;;;20.25;100.00;100569.91;5019479;28;20026;-52
2023/08/13 06:48:48;;;;;;;1.83;0.25;;;;;;;20.22;100.00;100566.91;5022635;28;20383;-54
2023/08/13 06:51:13;;;;;;;2.50;0.00;;;;;;;20.23;100.00;100571.22;5021121;28;20040;-54
2023/08/13 06:53:38;;;;;;;4.78;0.10;;;;;;;20.37;100.00;100580.53;5019464;28;20065;-54
2023/08/13 06:56:06;;;;;;;3.22;0.50;;;;;;;20.36;100.00;100570.81;5024620;28;20431;-47
2023/08/13 06:58:31;;;;;;;3.60;0.08;;;;;;;20.26;100.00;100570.72;5022474;28;20125;-51
2023/08/13 07:00:57;;;;;;;1.55;0.28;;;;;;;20.13;100.00;100569.22;5021012;28;20104;-55
2023/08/13 07:03:22;;;;;;;1.27;0.13;;;;;;;20.01;100.00;100582.03;5017968;28;20045;-52
2023/08/13 07:05:48;;;;;;;2.00;0.75;;;;;;;19.98;100.00;100572.59;5018056;28;20124;-49
2023/08/13 07:08:13;;;;;;;3.08;0.20;;;;;;;20.10;100.00;100568.94;5021716;28;20052;-52
2023/08/13 07:10:39;;;;;;;1.85;0.10;;;;;;;20.16;100.00;100570.59;5017417;28;20487;-51
2023/08/13 07:13:05;;;;;;;1.10;0.05;;;;;;;20.17;100.00;100572.25;5019984;28;20037;-48
2023/08/13 07:15:30;;;;;;;0.93;0.40;;;;;;;20.30;100.00;100573.75;5017864;28;20079;-56
2023/08/13 07:17:55;;;;;;;1.35;0.10;;;;;;;20.42;100.00;100579.75;5016314;28;20025;-50
2023/08/13 07:20:21;;;;;;;2.92;0.10;;;;;;;20.56;100.00;100582.91;5019052;28;20103;-55
2023/08/13 07:22:47;;;;;;;4.78;0.90;;;;;;;20.56;100.00;100577.53;5016834;28;20062;-50
2023/08/13 07:25:13;;;;;;;3.88;1.00;;;;;;;20.41;100.00;100591.63;5023323;28;20503;-52
2023/08/13 07:27:39;;;;;;;6.72;1.10;;;;;;;20.37;100.00;100583.25;5017764;28;20032;-54
2023/08/13 07:30:07;;;;;;;4.65;0.10;;;;;;;20.53;100.00;100578.81;5014957;28;20066;-49
2023/08/13 07:32:34;;;;;;;2.80;0.20;;;;;;;20.44;100.00;100583.81;5016580;28;20033;-50
2023/08/13 07:35:00;;;;;;;2.90;0.75;;;;;;;20.40;100.00;100581.91;5022293;28;20124;-47
2023/08/13 07:37:26;;;;;;;2.95;0.30;;;;;;;20.50;100.00;100590.09;5022760;28;20029;-48
2023/08/13 07:39:51;;;;;;;1.38;0.00;;;;;;;20.55;100.00;100587.50;5015986;28;20420;-51
2023/08/13 07:42:17;;;;;;;0.98;0.20;;;;;;;20.63;100.00;100587.03;5018338;28;20298;-50
2023/08/13 07:44:42;;;;;;;4.40;0.32;;;;;;;20.63;100.00;100587.03;5025189;28;20960;-51
2023/08/13 07:47:07;;;;;;;2.38;0.85;;;;;;;20.87;100.00;100584.00;5017292;28;20026;-48
2023/08/13 07:49:33;;;;;;;3.92;0.98;;;;;;;20.81;100.00;100580.44;5019711;28;20029;-50
2023/08/13 07:51:58;;;;;;;5.95;0.70;;;;;;;20.85;100.00;100589.63;5013106;28;20487;-55
2023/08/13 07:54:24;;;;;;;3.85;0.10;;;;;;;20.73;100.00;100588.16;5012862;28;20075;-52
2023/08/13 07:56:49;;;;;;;1.52;0.00;;;;;;;20.69;100.00;100591.38;5017126;28;20029;-50
2023/08/13 07:59:14;;;;;;;1.05;0.20;;;;;;;20.59;100.00;100596.66;5019987;28;20056;-53
2023/08/13 08:01:43;;;;;;;2.33;0.10;;;;;;;20.42;100.00;100587.84;5022993;28;20029;-51
2023/08/13 08:04:08;;;;;;;2.90;0.17;;;;;;;20.53;100.00;100586.09;5007407;28;20037;-49
2023/08/13 08:06:34;;;;;;;3.97;0.43;;;;;;;20.66;100.00;100589.19;5020039;28;20066;-53
2023/08/13 08:08:59;;;;;;;2.17;0.03;;;;;;;20.75;100.00;100584.16;5017762;28;20033;-51
2023/08/13 08:11:25;;;;;;;10.45;1.13;;;;;;;20.78;100.00;100583.66;5019576;28;20040;-47
2023/08/13 08:13:50;;;;;;;2.00;0.20;;;;;;;20.78;100.00;100580.13;5014827;28;20444;-49
2023/08/13 08:16:15;;;;;;;2.17;0.00;;;;;;;20.91;100.00;100582.44;5016497;28;20123;-55
2023/08/13 08:18:41;;;;;;;1.15;0.40;;;;;;;20.98;100.00;100585.69;5011962;28;20152;-48
2023/08/13 08:21:06;;;;;;;0.40;0.10;;;;;;;21.02;100.00;100576.03;5012893;28;20053;-47
2023/08/13 08:23:33;;;;;;;3.40;0.30;;;;;;;21.02;100.00;100581.44;5010113;28;20049;-48
2023/08/13 08:25:58;;;;;;;2.95;0.28;;;;;;;21.22;100.00;100578.06;5017869;28;20063;-54
2023/08/13 08:28:25;;;;;;;1.27;0.38;;;;;;;21.31;100.00;100578.38;5007197;28;20298;-50
2023/08/13 08:30:51;;;;;;;4.45;0.95;;;;;;;21.14;100.00;100583.94;5010218;28;20099;-52
2023/08/13 08:33:16;;;;;;;0.90;0.43;;;;;;;21.23;100.00;100579.69;5003111;28;20634;-58
2023/08/13 08:35:41;;;;;;;1.95;0.43;;;;;;;21.41;100.00;100589.28;5009944;28;20022;-54
2023/08/13 08:38:07;;;;;;;2.38;0.10;;;;;;;21.36;100.00;100581.13;5017430;28;20030;-52
2023/08/13 08:40:32;;;;;;;3.83;0.77;;;;;;;21.49;100.00;100588.78;5035182;28;20521;-56
2023/08/13 08:42:58;;;;;;;2.20;0.90;;;;;;;21.55;100.00;100581.53;5010866;28;20022;-49
2023/08/13 08:45:24;;;;;;;0.85;0.22;;;;;;;22.08;100.00;100574.22;5015813;28;20041;-53
2023/08/13 08:47:51;;;;;;;0.77;0.00;;;;;;;22.21;100.00;100578.31;5022820;28;20041;-50
2023/08/13 08:50:16;;;;;;;4.53;0.95;;;;;;;22.19;100.00;100577.78;5017187;28;20125;-52
2023/08/13 08:52:42;;;;;;;2.83;0.73;;;;;;;22.24;100.00;100576.97;5015595;28;20029;-57
2023/08/13 08:55:10;;;;;;;4.50;0.30;;;;;;;22.34;100.00;100563.50;5020765;28;20029;-53
2023/08/13 08:57:35;;;;;;;2.40;0.68;;;;;;;22.62;100.00;100560.28;5014850;28;20051;-50
2023/08/13 09:00:01;;;;;;;4.35;0.40;;;;;;;22.62;100.00;100571.09;5013607;28;20033;-47
2023/08/13 09:02:26;;;;;;;1.42;0.65;;;;;;;22.97;100.00;100553.28;5017187;28;20046;-54
2023/08/13 09:04:51;;;;;;;1.38;0.15;;;;;;;22.88;100.00;100559.50;5019980;28;20107;-50
2023/08/13 09:07:17;;;;;;;2.22;0.08;;;;;;;23.08;100.00;100551.41;5013655;28;20729;-56
2023/08/13 09:09:44;;;;;;;4.15;0.10;;;;;;;23.08;100.00;100556.81;5017697;28;20527;-54
2023/08/13 09:12:09;;;;;;;0.88;0.10;;;;;;;22.65;100.00;100553.53;5006910;28;20107;-49
2023/08/13 09:14:35;;;;;;;3.50;0.00;;;;;;;22.79;100.00;100549.19;5011553;28;20379;-57
2023/08/13 09:17:01;;;;;;;1.60;0.00;;;;;;;22.67;100.00;100559.50;5014054;28;20029;-55
2023/08/13 09:19:27;;;;;;;1.85;0.43;;;;;;;22.59;100.00;100558.13;5014844;28;20124;-48
2023/08/13 09:22:01;;;;;;;2.63;0.75;;;;;;;22.67;100.00;100550.59;5013455;28;20045;-51
2023/08/13 09:24:36;;;;;;;5.30;0.57;;;;;;;22.62;100.00;100559.50;5024230;28;20067;-57
2023/08/13 09:27:03;;;;;;;3.20;0.10;;;;;;;22.50;100.00;100553.53;5005739;28;20486;-48
2023/08/13 09:29:30;;;;;;;1.02;0.30;;;;;;;22.58;100.00;100563.78;5016379;28;20037;-57
2023/08/13 09:32:00;;;;;;;0.25;0.20;;;;;;;22.48;100.00;100559.19;5020059;28;20724;-52
2023/08/13 09:34:26;;;;;;;1.88;0.30;;;;;;;22.24;100.00;100556.19;5022679;28;20367;-53
2023/08/13 09:36:56;;;;;;;0.32;0.00;;;;;;;22.03;100.00;100567.97;5009878;28;20485;-52
2023/08/13 09:39:23;;;;;;;2.35;0.22;;;;;;;22.28;100.00;100551.88;5017063;28;20899;-49
2023/08/13 09:41:51;;;;;;;3.00;0.20;;;;;;;22.88;100.00;100551.38;5010169;28;20030;-50
2023/08/13 09:44:24;;;;;;;0.32;0.10;;;;;;;23.26;100.00;100545.41;5015534;28;20040;-46
2023/08/13 09:47:01;;;;;;;2.67;0.17;;;;;;;23.67;100.00;100542.59;5014465;28;20038;-47
2023/08/13 09:49:31;;;;;;;1.10;0.00;;;;;;;23.75;100.00;100543.09;5022754;28;20025;-51
2023/08/13 09:52:00;;;;;;;0.73;0.00;;;;;;;23.79;100.00;100533.34;5011262;28;20163;-54
2023/08/13 09:54:47;;;;;;;1.45;0.00;;;;;;;24.06;100.00;100532.94;5006895;28;20063;-50
2023/08/13 09:57:15;;;;;;;1.95;0.10;;;;;;;24.58;100.00;100529.66;5010861;28;20037;-52
2023/08/13 09:59:41;;;;;;;0.50;0.10;;;;;;;24.74;100.00;100524.09;5020351;28;20556;-53
2023/08/13 10:02:07;;;;;;;1.83;0.43;;;;;;;24.78;100.00;100533.25;5027606;28;20049;-53
2023/08/13 10:04:37;;;;;;;2.90;0.38;;;;;;;24.69;100.00;100534.97;5016320;28;20037;-50
2023/08/13 10:07:05;;;;;;;2.95;0.13;;;;;;;24.80;100.00;100525.66;5017342;28;20041;-55
2023/08/13 10:09:31;;;;;;;1.48;0.32;;;;;;;24.98;100.00;100524.13;5024311;28;20079;-52
2023/08/13 10:11:57;;;;;;;3.15;0.10;;;;;;;24.54;100.00;100520.44;5019217;28;20029;-47
2023/08/13 10:14:23;;;;;;;1.88;0.28;;;;;;;24.56;100.00;100515.56;5010297;28;20497;-46
2023/08/13 10:16:49;;;;;;;5.00;0.45;;;;;;;24.16;100.00;100512.03;5013369;28;20032;-49
2023/08/13 10:19:15;;;;;;;0.63;0.00;;;;;;;23.89;100.00;100522.47;5010524;28;20026;-47
2023/08/13 10:21:40;;;;;;;2.63;0.17;;;;;;;23.75;100.00;100524.16;5014596;28;20048;-47
2023/08/13 10:24:10;;;;;;;1.60;0.28;;;;;;;23.72;100.00;100522.81;5016590;28;20398;-55
2023/08/13 10:26:36;;;;;;;1.77;0.15;;;;;;;24.08;100.00;100515.31;5010518;28;20071;-50
2023/08/13 10:29:17;;;;;;;3.20;0.40;;;;;;;24.63;100.00;100511.69;5020818;28;20084;-46
2023/08/13 10:31:59;;;;;;;1.20;0.50;;;;;;;24.83;100.00;100503.38;5017622;28;20086;-50
2023/08/13 10:34:40;;;;;;;;;;;;;;;25.22;100.00;100510.63;5014489;28;20904;-57
2023/08/13 10:37:16;;;;;;;1.75;0.13;;;;;;;25.28;100.00;100509.47;5017749;28;19921;-51
2023/08/13 10:39:42;;;;;;;0.68;0.00;;;;;;;25.48;100.00;100504.91;5017721;28;20638;-49
2023/08/13 10:42:26;;;;;;;1.23;0.10;;;;;;;25.32;100.00;100498.84;5018922;28;20363;-57
2023/08/13 10:45:04;;;;;;;3.10;0.30;;;;;;;25.54;100.00;100511.91;5016589;28;20394;-52
2023/08/13 10:48:01;;;;;;;1.92;0.10;;;;;;;25.48;100.00;100513.03;5016553;28;20060;-53
2023/08/13 10:50:30;;;;;;;0.47;0.00;;;;;;;25.17;100.00;100510.66;5013010;28;20025;-54
2023/08/13 10:53:03;;;;;;;1.23;0.20;;;;;;;25.20;100.00;100516.34;5018460;28;20805;-57
2023/08/13 10:55:31;;;;;;;1.95;0.15;;;;;;;25.02;100.00;100507.00;5020073;28;20034;-50
2023/08/13 10:57:57;;;;;;;0.75;0.43;;;;;;;25.28;100.00;100509.47;5015997;28;20318;-50
2023/08/13 11:00:24;;;;;;;0.10;0.10;;;;;;;25.27;100.00;100520.63;5017864;28;20034;-52
2023/08/13 11:02:52;;;;;;;1.30;0.15;;;;;;;24.94;100.00;100514.97;5018680;28;20482;-51
2023/08/13 11:05:18;;;;;;;1.25;0.08;;;;;;;24.79;100.00;100513.22;5018521;28;20051;-50
2023/08/13 11:07:43;;;;;;;1.65;0.10;;;;;;;24.63;100.00;100520.66;5016261;28;20038;-57
2023/08/13 11:10:15;;;;;;;0.45;0.15;;;;;;;24.17;100.00;100519.06;5018969;28;20036;-54
2023/08/13 11:12:41;;;;;;;0.40;0.00;;;;;;;23.97;100.00;100524.59;5020340;28;20028;-62
2023/08/13 11:15:06;;;;;;;1.25;0.00;;;;;;;23.50;100.00;100525.88;5017764;28;20068;-53